sensor_id;sensor_type;location;lat;lon;timestamp;temperature;humidity
33927;DHT22;20485;50.992;5.550;2023-02-28T00:00:13;-1.60;99.90
33927;DHT22;20485;50.992;5.550;2023-02-28T00:02:41;-1.70;99.90
33927;DHT22;20485;50.992;5.550;2023-02-28T00:05:08;-1.70;99.90
33927;DHT22;20485;50.992;5.550;2023-02-28T00:07:34;-1.80;99.90
33927;DHT22;20485;50.992;5.550;2023-02-28T00:10:00;-1.80;99.90
33927;DHT22;20485;50.992;5.550;2023-02-28T00:12:27;-1.90;99.90
33927;DHT22;20485;50.992;5.550;2023-02-28T00:14:52;-1.90;99.90
33927;DHT22;20485;50.992;5.550;2023-02-28T00:17:19;-2.00;99.90
33927;DHT22;20485;50.992;5.550;2023-02-28T00:19:47;-2.00;99.90
33927;DHT22;20485;50.992;5.550;2023-02-28T00:22:14;-2.10;99.90
33927;DHT22;20485;50.992;5.550;2023-02-28T00:24:40;-2.10;99.90
33927;DHT22;20485;50.992;5.550;2023-02-28T00:27:06;-2.10;99.90
33927;DHT22;20485;50.992;5.550;2023-02-28T00:29:31;-2.10;99.90
33927;DHT22;20485;50.992;5.550;2023-02-28T00:31:57;-1.00;99.90
33927;DHT22;20485;50.992;5.550;2023-02-28T00:34:23;-2.10;99.90
33927;DHT22;20485;50.992;5.550;2023-02-28T00:36:49;-2.10;99.90
33927;DHT22;20485;50.992;5.550;2023-02-28T00:39:15;-2.20;99.90
33927;DHT22;20485;50.992;5.550;2023-02-28T00:41:41;-2.20;99.90
33927;DHT22;20485;50.992;5.550;2023-02-28T00:44:07;-2.30;99.90
33927;DHT22;20485;50.992;5.550;2023-02-28T00:46:33;-2.30;99.90
33927;DHT22;20485;50.992;5.550;2023-02-28T00:48:58;-2.40;99.90
33927;DHT22;20485;50.992;5.550;2023-02-28T00:51:24;-2.40;99.90
33927;DHT22;20485;50.992;5.550;2023-02-28T00:53:50;-2.40;99.90
33927;DHT22;20485;50.992;5.550;2023-02-28T00:56:15;-2.40;99.90
33927;DHT22;20485;50.992;5.550;2023-02-28T00:58:41;-2.40;99.90
33927;DHT22;20485;50.992;5.550;2023-02-28T01:01:07;-2.40;99.90
33927;DHT22;20485;50.992;5.550;2023-02-28T01:03:33;-2.50;99.90
33927;DHT22;20485;50.992;5.550;2023-02-28T01:05:58;-2.50;99.90
33927;DHT22;20485;50.992;5.550;2023-02-28T01:08:24;-2.50;99.90
33927;DHT22;20485;50.992;5.550;2023-02-28T01:10:51;-2.50;99.90
33927;DHT22;20485;50.992;5.550;2023-02-28T01:13:17;-2.50;99.90
33927;DHT22;20485;50.992;5.550;2023-02-28T01:15:48;-2.60;99.90
33927;DHT22;20485;50.992;5.550;2023-02-28T01:18:14;-2.60;99.90
33927;DHT22;20485;50.992;5.550;2023-02-28T01:20:40;-2.80;99.90
33927;DHT22;20485;50.992;5.550;2023-02-28T01:23:06;-2.70;99.90
33927;DHT22;20485;50.992;5.550;2023-02-28T01:25:34;-2.70;99.90
33927;DHT22;20485;50.992;5.550;2023-02-28T01:28:00;-2.80;99.90
33927;DHT22;20485;50.992;5.550;2023-02-28T01:30:26;-2.80;99.90
33927;DHT22;20485;50.992;5.550;2023-02-28T01:32:51;-2.80;99.90
33927;DHT22;20485;50.992;5.550;2023-02-28T01:35:19;-2.90;99.90
33927;DHT22;20485;50.992;5.550;2023-02-28T01:37:45;-1.60;99.90
33927;DHT22;20485;50.992;5.550;2023-02-28T01:40:11;-2.90;99.90
33927;DHT22;20485;50.992;5.550;2023-02-28T01:42:37;-2.80;99.90
33927;DHT22;20485;50.992;5.550;2023-02-28T01:45:31;-2.90;99.90
33927;DHT22;20485;50.992;5.550;2023-02-28T01:48:06;-2.90;99.90
33927;DHT22;20485;50.992;5.550;2023-02-28T01:50:37;-2.90;99.90
33927;DHT22;20485;50.992;5.550;2023-02-28T01:53:07;-3.00;99.90
33927;DHT22;20485;50.992;5.550;2023-02-28T01:55:35;-3.00;99.90
33927;DHT22;20485;50.992;5.550;2023-02-28T01:58:04;-3.00;99.90
33927;DHT22;20485;50.992;5.550;2023-02-28T02:00:30;-3.10;99.90
33927;DHT22;20485;50.992;5.550;2023-02-28T02:03:05;-3.00;99.90
33927;DHT22;20485;50.992;5.550;2023-02-28T02:05:32;-3.10;99.90
33927;DHT22;20485;50.992;5.550;2023-02-28T02:08:07;-3.10;99.90
33927;DHT22;20485;50.992;5.550;2023-02-28T02:10:45;-3.20;99.90
33927;DHT22;20485;50.992;5.550;2023-02-28T02:13:47;-3.20;99.90
33927;DHT22;20485;50.992;5.550;2023-02-28T02:17:30;-3.20;99.90
33927;DHT22;20485;50.992;5.550;2023-02-28T02:22:12;-3.20;99.90
33927;DHT22;20485;50.992;5.550;2023-02-28T02:24:44;-3.30;99.90
33927;DHT22;20485;50.992;5.550;2023-02-28T02:30:14;-3.30;99.90
33927;DHT22;20485;50.992;5.550;2023-02-28T02:46:38;-3.50;99.90
33927;DHT22;20485;50.992;5.550;2023-02-28T02:49:21;-3.50;99.90
33927;DHT22;20485;50.992;5.550;2023-02-28T02:51:48;-3.50;99.90
33927;DHT22;20485;50.992;5.550;2023-02-28T02:54:21;-2.20;99.90
33927;DHT22;20485;50.992;5.550;2023-02-28T02:56:49;-3.50;99.90
33927;DHT22;20485;50.992;5.550;2023-02-28T02:59:19;-3.50;99.90
33927;DHT22;20485;50.992;5.550;2023-02-28T03:01:51;-1.10;99.90
33927;DHT22;20485;50.992;5.550;2023-02-28T03:04:21;-3.50;99.90
33927;DHT22;20485;50.992;5.550;2023-02-28T03:06:48;-3.50;99.90
33927;DHT22;20485;50.992;5.550;2023-02-28T03:09:15;-3.50;99.90
33927;DHT22;20485;50.992;5.550;2023-02-28T03:11:42;-3.50;99.90
33927;DHT22;20485;50.992;5.550;2023-02-28T03:15:21;-3.40;99.90
33927;DHT22;20485;50.992;5.550;2023-02-28T03:17:25;-3.40;99.90
33927;DHT22;20485;50.992;5.550;2023-02-28T03:25:33;-3.30;99.90
33927;DHT22;20485;50.992;5.550;2023-02-28T03:33:18;-3.20;99.90
33927;DHT22;20485;50.992;5.550;2023-02-28T03:36:10;-3.10;99.90
33927;DHT22;20485;50.992;5.550;2023-02-28T03:41:19;-3.00;99.90
33927;DHT22;20485;50.992;5.550;2023-02-28T03:44:11;-3.00;99.90
33927;DHT22;20485;50.992;5.550;2023-02-28T03:46:47;-2.90;99.90
33927;DHT22;20485;50.992;5.550;2023-02-28T03:49:16;-2.90;99.90
33927;DHT22;20485;50.992;5.550;2023-02-28T03:51:43;-3.00;99.90
33927;DHT22;20485;50.992;5.550;2023-02-28T03:54:18;-1.30;99.90
33927;DHT22;20485;50.992;5.550;2023-02-28T03:59:56;-3.00;99.90
33927;DHT22;20485;50.992;5.550;2023-02-28T04:02:24;-3.00;99.90
33927;DHT22;20485;50.992;5.550;2023-02-28T04:04:50;-2.90;99.90
33927;DHT22;20485;50.992;5.550;2023-02-28T04:07:17;-3.10;99.90
33927;DHT22;20485;50.992;5.550;2023-02-28T04:09:48;-3.10;99.90
33927;DHT22;20485;50.992;5.550;2023-02-28T04:12:13;-3.10;99.90
33927;DHT22;20485;50.992;5.550;2023-02-28T04:14:39;-3.00;99.90
33927;DHT22;20485;50.992;5.550;2023-02-28T04:17:05;-3.00;99.90
33927;DHT22;20485;50.992;5.550;2023-02-28T04:19:30;-3.00;99.90
33927;DHT22;20485;50.992;5.550;2023-02-28T04:21:56;-3.00;99.90
33927;DHT22;20485;50.992;5.550;2023-02-28T04:24:25;-2.90;99.90
33927;DHT22;20485;50.992;5.550;2023-02-28T04:26:54;-2.90;99.90
33927;DHT22;20485;50.992;5.550;2023-02-28T04:29:28;-2.90;99.90
33927;DHT22;20485;50.992;5.550;2023-02-28T04:31:55;-2.90;99.90
33927;DHT22;20485;50.992;5.550;2023-02-28T04:34:25;-2.90;99.90
33927;DHT22;20485;50.992;5.550;2023-02-28T04:36:51;-2.80;99.90
33927;DHT22;20485;50.992;5.550;2023-02-28T04:39:20;-2.90;99.90
33927;DHT22;20485;50.992;5.550;2023-02-28T04:41:46;-3.00;99.90
33927;DHT22;20485;50.992;5.550;2023-02-28T04:44:12;-3.10;99.90
33927;DHT22;20485;50.992;5.550;2023-02-28T04:46:38;-3.30;99.90
33927;DHT22;20485;50.992;5.550;2023-02-28T04:49:04;-3.20;99.90
33927;DHT22;20485;50.992;5.550;2023-02-28T04:51:30;-3.30;99.90
33927;DHT22;20485;50.992;5.550;2023-02-28T04:53:56;-3.40;99.90
33927;DHT22;20485;50.992;5.550;2023-02-28T04:56:21;-3.50;99.90
33927;DHT22;20485;50.992;5.550;2023-02-28T04:58:48;-3.60;99.90
33927;DHT22;20485;50.992;5.550;2023-02-28T05:01:26;-3.60;99.90
33927;DHT22;20485;50.992;5.550;2023-02-28T05:03:54;-3.70;99.90
33927;DHT22;20485;50.992;5.550;2023-02-28T05:06:23;-3.80;99.90
33927;DHT22;20485;50.992;5.550;2023-02-28T05:08:52;-3.80;99.90
33927;DHT22;20485;50.992;5.550;2023-02-28T05:11:24;-3.80;99.90
33927;DHT22;20485;50.992;5.550;2023-02-28T05:13:51;-3.80;99.90
33927;DHT22;20485;50.992;5.550;2023-02-28T05:16:17;-3.90;99.90
33927;DHT22;20485;50.992;5.550;2023-02-28T05:18:44;-3.90;99.90
33927;DHT22;20485;50.992;5.550;2023-02-28T05:21:33;-3.90;99.90
33927;DHT22;20485;50.992;5.550;2023-02-28T05:24:02;-3.90;99.90
33927;DHT22;20485;50.992;5.550;2023-02-28T05:26:29;-3.10;99.90
33927;DHT22;20485;50.992;5.550;2023-02-28T05:28:55;-3.90;99.90
33927;DHT22;20485;50.992;5.550;2023-02-28T05:31:22;-3.90;99.90
33927;DHT22;20485;50.992;5.550;2023-02-28T05:33:48;-4.00;99.90
33927;DHT22;20485;50.992;5.550;2023-02-28T05:36:14;-3.90;99.90
33927;DHT22;20485;50.992;5.550;2023-02-28T05:38:39;-4.00;99.90
33927;DHT22;20485;50.992;5.550;2023-02-28T05:41:09;-4.00;99.90
33927;DHT22;20485;50.992;5.550;2023-02-28T05:43:36;-4.00;99.90
33927;DHT22;20485;50.992;5.550;2023-02-28T05:46:06;-3.90;99.90
33927;DHT22;20485;50.992;5.550;2023-02-28T05:48:37;-4.00;99.90
33927;DHT22;20485;50.992;5.550;2023-02-28T05:51:04;-3.90;99.90
33927;DHT22;20485;50.992;5.550;2023-02-28T05:53:30;-2.60;99.90
33927;DHT22;20485;50.992;5.550;2023-02-28T05:55:57;-4.00;99.90
33927;DHT22;20485;50.992;5.550;2023-02-28T05:58:23;-3.90;99.90
33927;DHT22;20485;50.992;5.550;2023-02-28T06:00:50;-3.90;99.90
33927;DHT22;20485;50.992;5.550;2023-02-28T06:03:16;-3.90;99.90
33927;DHT22;20485;50.992;5.550;2023-02-28T06:05:42;-3.90;99.90
33927;DHT22;20485;50.992;5.550;2023-02-28T06:08:07;-3.80;99.90
33927;DHT22;20485;50.992;5.550;2023-02-28T06:10:34;-3.80;99.90
33927;DHT22;20485;50.992;5.550;2023-02-28T06:13:01;-3.90;99.90
33927;DHT22;20485;50.992;5.550;2023-02-28T06:15:30;-4.00;99.90
33927;DHT22;20485;50.992;5.550;2023-02-28T06:17:56;-4.00;99.90
33927;DHT22;20485;50.992;5.550;2023-02-28T06:20:23;-4.00;99.90
33927;DHT22;20485;50.992;5.550;2023-02-28T06:22:49;-4.00;99.90
33927;DHT22;20485;50.992;5.550;2023-02-28T06:25:21;-3.90;99.90
33927;DHT22;20485;50.992;5.550;2023-02-28T06:27:47;-3.90;99.90
33927;DHT22;20485;50.992;5.550;2023-02-28T06:30:13;-3.90;99.90
33927;DHT22;20485;50.992;5.550;2023-02-28T06:32:39;-3.80;99.90
33927;DHT22;20485;50.992;5.550;2023-02-28T06:35:05;-3.60;99.90
33927;DHT22;20485;50.992;5.550;2023-02-28T06:37:32;-3.40;99.90
33927;DHT22;20485;50.992;5.550;2023-02-28T06:39:57;-3.40;99.90
33927;DHT22;20485;50.992;5.550;2023-02-28T06:42:24;-3.40;99.90
33927;DHT22;20485;50.992;5.550;2023-02-28T06:44:54;-3.40;99.90
33927;DHT22;20485;50.992;5.550;2023-02-28T06:47:20;-3.40;99.90
33927;DHT22;20485;50.992;5.550;2023-02-28T06:49:46;-3.40;99.90
33927;DHT22;20485;50.992;5.550;2023-02-28T06:52:12;-3.40;99.90
33927;DHT22;20485;50.992;5.550;2023-02-28T06:54:38;-3.40;99.90
33927;DHT22;20485;50.992;5.550;2023-02-28T06:57:04;-3.40;99.90
33927;DHT22;20485;50.992;5.550;2023-02-28T06:59:30;-3.50;99.90
33927;DHT22;20485;50.992;5.550;2023-02-28T07:01:55;-3.00;99.90
33927;DHT22;20485;50.992;5.550;2023-02-28T07:04:22;-3.40;99.90
33927;DHT22;20485;50.992;5.550;2023-02-28T07:06:47;-3.40;99.90
33927;DHT22;20485;50.992;5.550;2023-02-28T07:09:13;-3.40;99.90
33927;DHT22;20485;50.992;5.550;2023-02-28T07:11:39;-3.40;99.90
33927;DHT22;20485;50.992;5.550;2023-02-28T07:14:06;-3.30;99.90
33927;DHT22;20485;50.992;5.550;2023-02-28T07:16:32;-3.40;99.90
33927;DHT22;20485;50.992;5.550;2023-02-28T07:18:58;-3.30;99.90
33927;DHT22;20485;50.992;5.550;2023-02-28T07:21:24;-3.30;99.90
33927;DHT22;20485;50.992;5.550;2023-02-28T07:23:50;-3.20;99.90
33927;DHT22;20485;50.992;5.550;2023-02-28T07:26:18;-3.10;99.90
33927;DHT22;20485;50.992;5.550;2023-02-28T07:28:45;-3.10;99.90
33927;DHT22;20485;50.992;5.550;2023-02-28T07:31:13;-3.00;99.90
33927;DHT22;20485;50.992;5.550;2023-02-28T07:33:40;-3.00;99.90
33927;DHT22;20485;50.992;5.550;2023-02-28T07:36:08;-2.90;99.90
33927;DHT22;20485;50.992;5.550;2023-02-28T07:38:37;-2.90;99.90
33927;DHT22;20485;50.992;5.550;2023-02-28T07:41:03;-2.80;99.90
33927;DHT22;20485;50.992;5.550;2023-02-28T07:43:32;-2.70;99.90
33927;DHT22;20485;50.992;5.550;2023-02-28T07:46:09;-2.70;99.90
33927;DHT22;20485;50.992;5.550;2023-02-28T07:48:35;-2.70;99.90
33927;DHT22;20485;50.992;5.550;2023-02-28T07:51:01;-2.60;99.90
33927;DHT22;20485;50.992;5.550;2023-02-28T07:53:28;-2.60;99.90
33927;DHT22;20485;50.992;5.550;2023-02-28T07:55:58;-2.40;99.90
33927;DHT22;20485;50.992;5.550;2023-02-28T07:58:25;-2.20;99.90
33927;DHT22;20485;50.992;5.550;2023-02-28T08:00:51;-2.20;99.90
33927;DHT22;20485;50.992;5.550;2023-02-28T08:03:21;0.00;99.90
33927;DHT22;20485;50.992;5.550;2023-02-28T08:05:48;-2.10;99.90
33927;DHT22;20485;50.992;5.550;2023-02-28T08:08:15;-2.10;99.90
33927;DHT22;20485;50.992;5.550;2023-02-28T08:10:40;-2.00;99.90
33927;DHT22;20485;50.992;5.550;2023-02-28T08:13:07;-1.90;99.90
33927;DHT22;20485;50.992;5.550;2023-02-28T08:15:33;-1.70;99.90
33927;DHT22;20485;50.992;5.550;2023-02-28T08:17:58;-1.70;99.90
33927;DHT22;20485;50.992;5.550;2023-02-28T08:20:25;-1.60;99.90
33927;DHT22;20485;50.992;5.550;2023-02-28T08:22:51;-1.60;99.90
33927;DHT22;20485;50.992;5.550;2023-02-28T08:25:17;-1.40;99.90
33927;DHT22;20485;50.992;5.550;2023-02-28T08:27:42;-1.30;99.90
33927;DHT22;20485;50.992;5.550;2023-02-28T08:30:11;-1.30;99.90
33927;DHT22;20485;50.992;5.550;2023-02-28T08:32:37;-1.20;99.90
33927;DHT22;20485;50.992;5.550;2023-02-28T08:35:03;-1.10;99.90
33927;DHT22;20485;50.992;5.550;2023-02-28T08:37:29;-1.00;99.90
33927;DHT22;20485;50.992;5.550;2023-02-28T08:39:54;-0.90;99.90
33927;DHT22;20485;50.992;5.550;2023-02-28T08:42:20;-0.70;99.90
33927;DHT22;20485;50.992;5.550;2023-02-28T08:44:46;-0.60;99.90
33927;DHT22;20485;50.992;5.550;2023-02-28T08:47:12;-0.50;99.90
33927;DHT22;20485;50.992;5.550;2023-02-28T08:49:37;-0.40;99.90
33927;DHT22;20485;50.992;5.550;2023-02-28T08:52:03;-0.40;99.90
33927;DHT22;20485;50.992;5.550;2023-02-28T08:54:29;1.60;99.90
33927;DHT22;20485;50.992;5.550;2023-02-28T08:56:56;-0.20;99.90
33927;DHT22;20485;50.992;5.550;2023-02-28T08:59:22;-0.10;99.90
33927;DHT22;20485;50.992;5.550;2023-02-28T09:01:48;1.90;99.90
33927;DHT22;20485;50.992;5.550;2023-02-28T09:04:14;0.20;99.90
33927;DHT22;20485;50.992;5.550;2023-02-28T09:06:40;0.20;99.90
33927;DHT22;20485;50.992;5.550;2023-02-28T09:09:07;0.30;99.90
33927;DHT22;20485;50.992;5.550;2023-02-28T09:11:34;0.30;99.90
33927;DHT22;20485;50.992;5.550;2023-02-28T09:14:00;0.40;99.90
33927;DHT22;20485;50.992;5.550;2023-02-28T09:16:29;0.50;99.90
33927;DHT22;20485;50.992;5.550;2023-02-28T09:18:56;0.50;99.90
33927;DHT22;20485;50.992;5.550;2023-02-28T09:21:22;0.60;99.90
33927;DHT22;20485;50.992;5.550;2023-02-28T09:23:50;0.50;99.90
33927;DHT22;20485;50.992;5.550;2023-02-28T09:26:25;0.60;99.90
33927;DHT22;20485;50.992;5.550;2023-02-28T09:28:52;0.70;99.90
33927;DHT22;20485;50.992;5.550;2023-02-28T09:31:21;0.80;99.90
33927;DHT22;20485;50.992;5.550;2023-02-28T09:33:48;0.80;99.90
33927;DHT22;20485;50.992;5.550;2023-02-28T09:36:14;0.90;99.90
33927;DHT22;20485;50.992;5.550;2023-02-28T09:38:40;2.90;99.90
33927;DHT22;20485;50.992;5.550;2023-02-28T09:41:19;1.00;99.90
33927;DHT22;20485;50.992;5.550;2023-02-28T09:44:05;1.20;99.90
33927;DHT22;20485;50.992;5.550;2023-02-28T09:46:39;1.20;99.90
33927;DHT22;20485;50.992;5.550;2023-02-28T09:49:17;1.20;99.90
33927;DHT22;20485;50.992;5.550;2023-02-28T09:54:24;1.30;99.90
33927;DHT22;20485;50.992;5.550;2023-02-28T10:05:13;1.60;99.90
33927;DHT22;20485;50.992;5.550;2023-02-28T10:08:03;1.60;99.90
33927;DHT22;20485;50.992;5.550;2023-02-28T10:10:42;1.60;99.90
33927;DHT22;20485;50.992;5.550;2023-02-28T10:13:32;1.70;99.90
33927;DHT22;20485;50.992;5.550;2023-02-28T10:16:06;1.70;99.90
33927;DHT22;20485;50.992;5.550;2023-02-28T10:18:47;1.80;99.90
33927;DHT22;20485;50.992;5.550;2023-02-28T10:22:17;1.80;99.90
33927;DHT22;20485;50.992;5.550;2023-02-28T10:24:32;1.80;99.90
33927;DHT22;20485;50.992;5.550;2023-02-28T10:27:17;1.80;99.90
33927;DHT22;20485;50.992;5.550;2023-02-28T10:29:46;2.00;99.90
33927;DHT22;20485;50.992;5.550;2023-02-28T10:32:18;2.00;99.90
33927;DHT22;20485;50.992;5.550;2023-02-28T10:34:44;2.10;99.90
33927;DHT22;20485;50.992;5.550;2023-02-28T10:37:13;2.10;99.90
33927;DHT22;20485;50.992;5.550;2023-02-28T10:39:44;2.10;99.90
33927;DHT22;20485;50.992;5.550;2023-02-28T10:42:27;2.20;99.90
33927;DHT22;20485;50.992;5.550;2023-02-28T10:47:34;1.90;99.90
33927;DHT22;20485;50.992;5.550;2023-02-28T10:50:00;1.90;99.90
33927;DHT22;20485;50.992;5.550;2023-02-28T10:52:36;1.90;99.90
33927;DHT22;20485;50.992;5.550;2023-02-28T10:55:35;2.10;99.90
33927;DHT22;20485;50.992;5.550;2023-02-28T10:58:01;2.40;99.90
33927;DHT22;20485;50.992;5.550;2023-02-28T11:00:34;2.40;99.90
33927;DHT22;20485;50.992;5.550;2023-02-28T11:03:00;2.50;99.90
33927;DHT22;20485;50.992;5.550;2023-02-28T11:05:35;2.60;99.90
33927;DHT22;20485;50.992;5.550;2023-02-28T11:08:18;2.70;99.90
33927;DHT22;20485;50.992;5.550;2023-02-28T11:10:54;3.10;99.90
33927;DHT22;20485;50.992;5.550;2023-02-28T11:13:24;2.80;99.90
33927;DHT22;20485;50.992;5.550;2023-02-28T11:15:57;2.80;99.90
33927;DHT22;20485;50.992;5.550;2023-02-28T11:18:28;2.80;99.90
33927;DHT22;20485;50.992;5.550;2023-02-28T11:20:56;2.90;99.90
33927;DHT22;20485;50.992;5.550;2023-02-28T11:23:26;3.00;99.90
33927;DHT22;20485;50.992;5.550;2023-02-28T11:25:55;2.90;99.90
33927;DHT22;20485;50.992;5.550;2023-02-28T11:28:41;3.00;99.90
33927;DHT22;20485;50.992;5.550;2023-02-28T11:33:50;3.20;99.90
33927;DHT22;20485;50.992;5.550;2023-02-28T11:36:27;3.10;99.90
33927;DHT22;20485;50.992;5.550;2023-02-28T11:38:55;3.00;99.90
33927;DHT22;20485;50.992;5.550;2023-02-28T11:47:33;3.20;99.90
33927;DHT22;20485;50.992;5.550;2023-02-28T11:52:54;3.20;99.90
33927;DHT22;20485;50.992;5.550;2023-02-28T11:55:24;3.40;99.90
33927;DHT22;20485;50.992;5.550;2023-02-28T12:03:00;3.20;99.90
33927;DHT22;20485;50.992;5.550;2023-02-28T12:05:43;3.30;99.90
33927;DHT22;20485;50.992;5.550;2023-02-28T12:08:40;3.40;99.90
33927;DHT22;20485;50.992;5.550;2023-02-28T12:16:59;3.50;99.90
33927;DHT22;20485;50.992;5.550;2023-02-28T12:22:49;3.40;99.90
33927;DHT22;20485;50.992;5.550;2023-02-28T12:27:52;3.40;99.90
33927;DHT22;20485;50.992;5.550;2023-02-28T12:30:49;3.30;99.90
33927;DHT22;20485;50.992;5.550;2023-02-28T12:33:19;3.40;99.90
33927;DHT22;20485;50.992;5.550;2023-02-28T12:35:57;3.50;99.90
33927;DHT22;20485;50.992;5.550;2023-02-28T12:38:34;3.50;99.90
33927;DHT22;20485;50.992;5.550;2023-02-28T12:41:05;3.60;99.90
33927;DHT22;20485;50.992;5.550;2023-02-28T12:43:40;3.80;99.90
33927;DHT22;20485;50.992;5.550;2023-02-28T12:46:12;3.90;99.90
33927;DHT22;20485;50.992;5.550;2023-02-28T12:48:46;3.90;99.90
33927;DHT22;20485;50.992;5.550;2023-02-28T12:51:16;4.00;99.90
33927;DHT22;20485;50.992;5.550;2023-02-28T12:54:12;4.20;99.90
33927;DHT22;20485;50.992;5.550;2023-02-28T12:57:38;4.30;99.90
33927;DHT22;20485;50.992;5.550;2023-02-28T13:00:18;4.10;99.90
33927;DHT22;20485;50.992;5.550;2023-02-28T13:02:58;4.00;99.90
33927;DHT22;20485;50.992;5.550;2023-02-28T13:10:47;4.00;99.90
33927;DHT22;20485;50.992;5.550;2023-02-28T13:13:23;4.00;99.90
33927;DHT22;20485;50.992;5.550;2023-02-28T13:16:08;4.00;99.90
33927;DHT22;20485;50.992;5.550;2023-02-28T13:18:38;4.10;99.90
33927;DHT22;20485;50.992;5.550;2023-02-28T13:21:07;4.00;99.90
33927;DHT22;20485;50.992;5.550;2023-02-28T13:26:18;4.10;99.90
33927;DHT22;20485;50.992;5.550;2023-02-28T13:29:03;4.20;99.90
33927;DHT22;20485;50.992;5.550;2023-02-28T13:31:30;4.10;99.90
33927;DHT22;20485;50.992;5.550;2023-02-28T13:36:29;4.50;99.90
33927;DHT22;20485;50.992;5.550;2023-02-28T13:39:03;4.00;99.90
33927;DHT22;20485;50.992;5.550;2023-02-28T13:57:20;4.10;99.90
33927;DHT22;20485;50.992;5.550;2023-02-28T14:05:25;4.10;99.90
33927;DHT22;20485;50.992;5.550;2023-02-28T14:07:57;4.00;99.90
33927;DHT22;20485;50.992;5.550;2023-02-28T14:11:04;4.00;99.90
33927;DHT22;20485;50.992;5.550;2023-02-28T14:13:38;3.90;99.90
33927;DHT22;20485;50.992;5.550;2023-02-28T14:16:25;4.00;99.90
33927;DHT22;20485;50.992;5.550;2023-02-28T14:19:02;4.00;99.90
33927;DHT22;20485;50.992;5.550;2023-02-28T14:21:33;4.10;99.90
33927;DHT22;20485;50.992;5.550;2023-02-28T14:26:44;4.10;99.90
33927;DHT22;20485;50.992;5.550;2023-02-28T14:32:31;4.00;99.90
33927;DHT22;20485;50.992;5.550;2023-02-28T14:37:51;4.10;99.90
33927;DHT22;20485;50.992;5.550;2023-02-28T14:40:30;4.10;99.90
33927;DHT22;20485;50.992;5.550;2023-02-28T14:43:15;4.30;99.90
33927;DHT22;20485;50.992;5.550;2023-02-28T14:45:44;4.30;99.90
33927;DHT22;20485;50.992;5.550;2023-02-28T14:48:16;4.30;99.90
33927;DHT22;20485;50.992;5.550;2023-02-28T14:50:53;4.20;99.90
33927;DHT22;20485;50.992;5.550;2023-02-28T14:53:22;4.10;99.90
33927;DHT22;20485;50.992;5.550;2023-02-28T14:55:49;4.10;99.90
33927;DHT22;20485;50.992;5.550;2023-02-28T14:58:29;4.10;99.90
33927;DHT22;20485;50.992;5.550;2023-02-28T15:00:57;4.20;99.90
33927;DHT22;20485;50.992;5.550;2023-02-28T15:03:30;4.20;99.90
33927;DHT22;20485;50.992;5.550;2023-02-28T15:06:02;4.10;99.90
33927;DHT22;20485;50.992;5.550;2023-02-28T15:08:29;4.00;99.90
33927;DHT22;20485;50.992;5.550;2023-02-28T15:11:02;4.00;99.90
33927;DHT22;20485;50.992;5.550;2023-02-28T15:13:47;4.10;99.90
33927;DHT22;20485;50.992;5.550;2023-02-28T15:16:25;4.00;99.90
33927;DHT22;20485;50.992;5.550;2023-02-28T15:18:54;4.00;99.90
33927;DHT22;20485;50.992;5.550;2023-02-28T15:21:37;4.00;99.90
33927;DHT22;20485;50.992;5.550;2023-02-28T15:26:46;4.00;99.90
33927;DHT22;20485;50.992;5.550;2023-02-28T15:29:19;4.20;99.90
33927;DHT22;20485;50.992;5.550;2023-02-28T15:32:01;4.00;99.90
33927;DHT22;20485;50.992;5.550;2023-02-28T15:34:37;3.90;99.90
33927;DHT22;20485;50.992;5.550;2023-02-28T15:39:52;3.70;99.90
33927;DHT22;20485;50.992;5.550;2023-02-28T15:42:19;3.80;99.90
33927;DHT22;20485;50.992;5.550;2023-02-28T15:44:45;3.80;99.90
33927;DHT22;20485;50.992;5.550;2023-02-28T15:47:24;3.80;99.90
33927;DHT22;20485;50.992;5.550;2023-02-28T15:49:57;3.90;99.90
33927;DHT22;20485;50.992;5.550;2023-02-28T15:52:42;3.90;99.90
33927;DHT22;20485;50.992;5.550;2023-02-28T15:55:11;3.80;99.90
33927;DHT22;20485;50.992;5.550;2023-02-28T15:57:43;3.90;99.90
33927;DHT22;20485;50.992;5.550;2023-02-28T16:00:13;3.80;99.90
33927;DHT22;20485;50.992;5.550;2023-02-28T16:02:41;3.80;99.90
33927;DHT22;20485;50.992;5.550;2023-02-28T16:07:37;3.70;99.90
33927;DHT22;20485;50.992;5.550;2023-02-28T16:10:04;3.80;99.90
33927;DHT22;20485;50.992;5.550;2023-02-28T16:12:33;3.70;99.90
33927;DHT22;20485;50.992;5.550;2023-02-28T16:15:02;3.70;99.90
33927;DHT22;20485;50.992;5.550;2023-02-28T16:17:33;3.70;99.90
33927;DHT22;20485;50.992;5.550;2023-02-28T16:20:00;3.70;99.90
33927;DHT22;20485;50.992;5.550;2023-02-28T16:22:25;3.60;99.90
33927;DHT22;20485;50.992;5.550;2023-02-28T16:24:51;3.60;99.90
33927;DHT22;20485;50.992;5.550;2023-02-28T16:27:27;3.60;99.90
33927;DHT22;20485;50.992;5.550;2023-02-28T16:29:55;3.50;99.90
33927;DHT22;20485;50.992;5.550;2023-02-28T16:32:21;3.50;99.90
33927;DHT22;20485;50.992;5.550;2023-02-28T16:34:47;3.40;99.90
33927;DHT22;20485;50.992;5.550;2023-02-28T16:37:14;3.50;99.90
33927;DHT22;20485;50.992;5.550;2023-02-28T16:39:42;3.50;99.90
33927;DHT22;20485;50.992;5.550;2023-02-28T16:42:16;3.50;99.90
33927;DHT22;20485;50.992;5.550;2023-02-28T16:44:46;3.50;99.90
33927;DHT22;20485;50.992;5.550;2023-02-28T16:47:11;3.50;99.90
33927;DHT22;20485;50.992;5.550;2023-02-28T16:49:37;3.50;99.90
33927;DHT22;20485;50.992;5.550;2023-02-28T16:52:03;3.50;99.90
33927;DHT22;20485;50.992;5.550;2023-02-28T16:54:29;3.50;99.90
33927;DHT22;20485;50.992;5.550;2023-02-28T16:56:55;3.40;99.90
33927;DHT22;20485;50.992;5.550;2023-02-28T16:59:26;3.40;99.90
33927;DHT22;20485;50.992;5.550;2023-02-28T17:01:53;3.30;99.90
33927;DHT22;20485;50.992;5.550;2023-02-28T17:04:19;3.30;99.90
33927;DHT22;20485;50.992;5.550;2023-02-28T17:06:45;3.20;99.90
33927;DHT22;20485;50.992;5.550;2023-02-28T17:09:17;3.20;99.90
33927;DHT22;20485;50.992;5.550;2023-02-28T17:11:43;3.10;99.90
33927;DHT22;20485;50.992;5.550;2023-02-28T17:14:10;3.00;99.90
33927;DHT22;20485;50.992;5.550;2023-02-28T17:16:36;2.90;99.90
33927;DHT22;20485;50.992;5.550;2023-02-28T17:19:06;2.90;99.90
33927;DHT22;20485;50.992;5.550;2023-02-28T17:21:36;2.70;99.90
33927;DHT22;20485;50.992;5.550;2023-02-28T17:24:02;2.70;99.90
33927;DHT22;20485;50.992;5.550;2023-02-28T17:26:28;2.50;99.90
33927;DHT22;20485;50.992;5.550;2023-02-28T17:28:55;2.30;99.90
33927;DHT22;20485;50.992;5.550;2023-02-28T17:31:23;2.10;99.90
33927;DHT22;20485;50.992;5.550;2023-02-28T17:33:49;1.90;99.90
33927;DHT22;20485;50.992;5.550;2023-02-28T17:36:17;1.80;99.90
33927;DHT22;20485;50.992;5.550;2023-02-28T17:38:47;1.60;99.90
33927;DHT22;20485;50.992;5.550;2023-02-28T17:41:13;1.50;99.90
33927;DHT22;20485;50.992;5.550;2023-02-28T17:43:39;1.40;99.90
33927;DHT22;20485;50.992;5.550;2023-02-28T17:46:06;1.20;99.90
33927;DHT22;20485;50.992;5.550;2023-02-28T17:48:33;1.30;99.90
33927;DHT22;20485;50.992;5.550;2023-02-28T17:51:01;2.20;99.90
33927;DHT22;20485;50.992;5.550;2023-02-28T17:53:26;1.20;99.90
33927;DHT22;20485;50.992;5.550;2023-02-28T17:55:52;1.10;99.90
33927;DHT22;20485;50.992;5.550;2023-02-28T17:58:18;1.10;99.90
33927;DHT22;20485;50.992;5.550;2023-02-28T18:00:44;1.00;99.90
33927;DHT22;20485;50.992;5.550;2023-02-28T18:03:10;0.90;99.90